createdAt,value
2023-02-28T00:01:29.610Z,101320.41
2023-02-28T00:03:57.128Z,101319.50
2023-02-28T00:06:25.419Z,101311.53
2023-02-28T00:08:52.942Z,101315.03
2023-02-28T00:11:20.464Z,101337.06
2023-02-28T00:13:48.773Z,101332.63
2023-02-28T00:16:22.154Z,101332.56
2023-02-28T00:18:50.062Z,101329.97
2023-02-28T00:21:19.167Z,101340.53
2023-02-28T00:23:47.025Z,101330.91
2023-02-28T00:26:14.494Z,101322.97
2023-02-28T00:28:45.856Z,101342.38
2023-02-28T00:31:13.453Z,101337.06
2023-02-28T00:33:40.926Z,101332.56
2023-02-28T00:36:11.486Z,101344.09
2023-02-28T00:38:40.087Z,101339.66
2023-02-28T00:41:08.405Z,101339.69
2023-02-28T00:43:38.496Z,101334.34
2023-02-28T00:46:07.206Z,101354.63
2023-02-28T00:48:34.843Z,101347.53
2023-02-28T00:51:02.403Z,101348.41
2023-02-28T00:53:30.419Z,101337.84
2023-02-28T00:55:59.516Z,101356.28
2023-02-28T00:58:27.703Z,101348.38
2023-02-28T01:00:55.148Z,101353.66
2023-02-28T01:03:23.657Z,101351.88
2023-02-28T01:05:51.574Z,101360.69
2023-02-28T01:08:18.862Z,101358.88
2023-02-28T01:10:46.502Z,101362.47
2023-02-28T01:13:14.372Z,101362.44
2023-02-28T01:15:45.482Z,101373.91
2023-02-28T01:18:13.146Z,101377.41
2023-02-28T01:20:40.496Z,101383.59
2023-02-28T01:23:07.827Z,101385.34
2023-02-28T01:25:36.982Z,101384.44
2023-02-28T01:28:06.986Z,101375.66
2023-02-28T01:30:35.684Z,101377.34
2023-02-28T01:33:03.035Z,101373.81
2023-02-28T01:35:34.190Z,101372.91
2023-02-28T01:38:15.763Z,101373.78
2023-02-28T01:40:48.770Z,101374.72
2023-02-28T01:43:31.124Z,101375.53
2023-02-28T01:46:00.220Z,101372.88
2023-02-28T01:48:35.109Z,101372.88
2023-02-28T01:51:07.872Z,101376.44
2023-02-28T01:53:48.718Z,101370.19
2023-02-28T01:56:21.582Z,101368.47
2023-02-28T01:58:54.571Z,101371.06
2023-02-28T02:01:23.545Z,101376.34
2023-02-28T02:04:00.024Z,101375.47
2023-02-28T02:06:35.072Z,101371.97
2023-02-28T02:09:03.008Z,101349.06
2023-02-28T02:11:31.423Z,101359.56
2023-02-28T02:14:18.287Z,101363.16
2023-02-28T02:17:15.953Z,101355.22
2023-02-28T02:20:14.433Z,101365.84
2023-02-28T02:23:03.502Z,101364.16
2023-02-28T02:25:35.084Z,101354.38
2023-02-28T02:28:18.174Z,101359.69
2023-02-28T02:31:17.342Z,101346.44
2023-02-28T02:34:17.833Z,101352.66
2023-02-28T02:37:37.749Z,101345.59
2023-02-28T02:40:17.431Z,101357.97
2023-02-28T02:43:14.240Z,101350.94
2023-02-28T02:45:48.889Z,101340.38
2023-02-28T02:48:20.887Z,101357.06
2023-02-28T02:50:56.852Z,101359.69
2023-02-28T02:53:34.446Z,101350.91
2023-02-28T02:56:04.827Z,101355.28
2023-02-28T02:58:43.244Z,101338.56
2023-02-28T03:01:26.156Z,101346.50
2023-02-28T03:03:54.995Z,101345.59
2023-02-28T03:06:22.433Z,101341.25
2023-02-28T03:08:50.713Z,101352.72
2023-02-28T03:11:21.432Z,101349.19
2023-02-28T03:14:15.492Z,101352.78
2023-02-28T03:17:01.985Z,101351.94
2023-02-28T03:19:38.447Z,101352.81
2023-02-28T03:22:26.047Z,101347.53
2023-02-28T03:25:05.727Z,101337.81
2023-02-28T03:27:45.103Z,101351.00
2023-02-28T03:30:37.393Z,101345.78
2023-02-28T03:33:09.306Z,101349.28
2023-02-28T03:35:53.402Z,101351.00
2023-02-28T03:38:39.189Z,101346.59
2023-02-28T03:41:18.666Z,101351.00
2023-02-28T03:43:54.696Z,101356.28
2023-02-28T03:46:25.613Z,101356.28
2023-02-28T03:48:58.703Z,101357.97
2023-02-28T03:51:27.481Z,101366.78
2023-02-28T03:54:00.906Z,101356.22
2023-02-28T03:57:03.584Z,101357.19
2023-02-28T03:59:48.361Z,101363.34
2023-02-28T04:02:15.965Z,101368.50
2023-02-28T04:04:49.396Z,101364.91
2023-02-28T04:07:29.087Z,101368.44
2023-02-28T04:09:56.777Z,101357.75
2023-02-28T04:12:24.345Z,101357.72
2023-02-28T04:14:52.104Z,101390.28
2023-02-28T04:17:19.991Z,101385.91
2023-02-28T04:19:47.415Z,101378.78
2023-02-28T04:22:14.905Z,101376.19
2023-02-28T04:24:42.559Z,101388.44
2023-02-28T04:27:10.602Z,101378.84
2023-02-28T04:29:38.057Z,101392.09
2023-02-28T04:32:05.925Z,101381.53
2023-02-28T04:34:33.899Z,101398.34
2023-02-28T04:37:17.229Z,101391.25
2023-02-28T04:39:44.783Z,101396.50
2023-02-28T04:42:13.271Z,101395.63
2023-02-28T04:44:40.675Z,101392.03
2023-02-28T04:47:08.322Z,101381.47
2023-02-28T04:49:35.768Z,101378.75
2023-02-28T04:52:03.287Z,101385.00
2023-02-28T04:54:30.907Z,101395.63
2023-02-28T04:56:58.496Z,101380.53
2023-02-28T04:59:25.969Z,101390.25
2023-02-28T05:01:53.437Z,101386.75
2023-02-28T05:04:20.903Z,101394.72
2023-02-28T05:06:48.329Z,101393.88
2023-02-28T05:09:15.664Z,101401.75
2023-02-28T05:11:43.027Z,101396.59
2023-02-28T05:14:14.355Z,101390.50
2023-02-28T05:16:41.776Z,101387.84
2023-02-28T05:19:09.341Z,101385.19
2023-02-28T05:21:42.062Z,101391.31
2023-02-28T05:24:13.094Z,101380.69
2023-02-28T05:26:43.147Z,101385.97
2023-02-28T05:29:11.029Z,101378.03
2023-02-28T05:31:38.551Z,101385.22
2023-02-28T05:34:06.142Z,101387.72
2023-02-28T05:36:33.949Z,101390.47
2023-02-28T05:39:01.325Z,101391.38
2023-02-28T05:41:29.246Z,101374.56
2023-02-28T05:43:58.699Z,101382.38
2023-02-28T05:46:26.444Z,101396.44
2023-02-28T05:48:53.879Z,101387.66
2023-02-28T05:51:21.321Z,101382.38
2023-02-28T05:53:50.231Z,101390.28
2023-02-28T05:56:17.703Z,101388.53
2023-02-28T05:58:45.007Z,101396.50
2023-02-28T06:01:46.042Z,101400.88
2023-02-28T06:04:30.406Z,101394.66
2023-02-28T06:06:59.335Z,101399.09
2023-02-28T06:09:26.706Z,101400.91
2023-02-28T06:11:55.136Z,101400.84
2023-02-28T06:14:22.569Z,101411.41
2023-02-28T06:16:50.001Z,101409.63
2023-02-28T06:19:18.205Z,101423.72
2023-02-28T06:21:46.242Z,101415.72
2023-02-28T06:24:13.653Z,101423.78
2023-02-28T06:26:41.007Z,101431.69
2023-02-28T06:29:09.806Z,101421.13
2023-02-28T06:31:37.322Z,101432.59
2023-02-28T06:34:05.085Z,101422.09
2023-02-28T06:36:32.455Z,101414.03
2023-02-28T06:38:59.810Z,101427.28
2023-02-28T06:41:28.687Z,101428.19
2023-02-28T06:43:56.504Z,101417.63
2023-02-28T06:46:24.491Z,101423.84
2023-02-28T06:48:51.954Z,101431.72
2023-02-28T06:51:23.143Z,101450.25
2023-02-28T06:53:50.718Z,101450.31
2023-02-28T06:56:21.190Z,101437.94
2023-02-28T06:58:50.747Z,101446.88
2023-02-28T07:01:18.446Z,101434.63
2023-02-28T07:03:46.942Z,101436.31
2023-02-28T07:06:14.301Z,101435.50
2023-02-28T07:08:42.176Z,101436.47
2023-02-28T07:11:09.825Z,101447.97
2023-02-28T07:13:37.908Z,101445.31
2023-02-28T07:16:09.900Z,101449.72
2023-02-28T07:18:38.424Z,101441.84
2023-02-28T07:21:09.345Z,101438.31
2023-02-28T07:23:39.030Z,101446.31
2023-02-28T07:26:07.843Z,101443.63
2023-02-28T07:28:35.282Z,101441.84
2023-02-28T07:31:06.823Z,101451.66
2023-02-28T07:33:35.057Z,101449.94
2023-02-28T07:36:07.436Z,101445.56
2023-02-28T07:38:36.764Z,101448.16
2023-02-28T07:41:07.674Z,101445.53
2023-02-28T07:43:35.839Z,101443.84
2023-02-28T07:46:10.041Z,101451.97
2023-02-28T07:48:37.887Z,101442.28
2023-02-28T07:51:05.678Z,101443.13
2023-02-28T07:53:33.578Z,101442.22
2023-02-28T07:56:02.903Z,101443.16
2023-02-28T07:58:31.854Z,101445.75
2023-02-28T08:01:07.392Z,101449.28
2023-02-28T08:03:34.949Z,101458.13
2023-02-28T08:06:09.047Z,101450.19
2023-02-28T08:08:36.550Z,101457.19
2023-02-28T08:11:04.672Z,101440.16
2023-02-28T08:13:32.466Z,101448.88
2023-02-28T08:16:03.073Z,101451.59
2023-02-28T08:18:30.543Z,101442.97
2023-02-28T08:20:58.503Z,101443.00
2023-02-28T08:23:25.832Z,101444.84
2023-02-28T08:25:57.433Z,101436.91
2023-02-28T08:28:27.114Z,101453.66
2023-02-28T08:30:56.322Z,101468.72
2023-02-28T08:33:24.753Z,101457.97
2023-02-28T08:35:56.465Z,101447.06
2023-02-28T08:38:25.241Z,101444.13
2023-02-28T08:41:00.018Z,101470.31
2023-02-28T08:43:28.077Z,101446.81
2023-02-28T08:45:58.640Z,101457.22
2023-02-28T08:48:27.652Z,101459.59
2023-02-28T08:51:10.385Z,101448.84
2023-02-28T08:53:38.487Z,101448.94
2023-02-28T08:56:17.641Z,101457.66
2023-02-28T08:58:47.098Z,101458.16
2023-02-28T09:01:17.141Z,101458.75
2023-02-28T09:03:47.165Z,101459.66
2023-02-28T09:06:51.526Z,101457.59
2023-02-28T09:09:18.907Z,101466.25
2023-02-28T09:11:46.325Z,101461.81
2023-02-28T09:14:13.680Z,101466.53
2023-02-28T09:16:41.171Z,101466.78
2023-02-28T09:19:12.752Z,101464.75
2023-02-28T09:21:40.716Z,101472.84
2023-02-28T09:24:08.664Z,101466.03
2023-02-28T09:26:42.729Z,101462.44
2023-02-28T09:29:12.047Z,101466.69
2023-02-28T09:31:39.549Z,101469.75
2023-02-28T09:34:07.871Z,101477.03
2023-02-28T09:36:44.706Z,101469.75
2023-02-28T09:39:15.494Z,101471.75
2023-02-28T09:41:51.392Z,101464.75
2023-02-28T09:44:37.473Z,101476.25
2023-02-28T09:47:27.980Z,101471.63
2023-02-28T09:49:58.099Z,101478.84
2023-02-28T09:52:31.329Z,101467.25
2023-02-28T09:55:21.973Z,101468.38
2023-02-28T09:57:52.050Z,101456.88
2023-02-28T10:00:25.878Z,101462.97
2023-02-28T10:03:04.011Z,101461.25
2023-02-28T10:05:36.750Z,101462.13
2023-02-28T10:08:19.078Z,101474.56
2023-02-28T10:10:50.047Z,101456.94
2023-02-28T10:13:32.705Z,101459.50
2023-02-28T10:16:05.524Z,101462.09
2023-02-28T10:18:43.594Z,101445.31
2023-02-28T10:21:43.362Z,101456.72
2023-02-28T10:24:34.096Z,101437.34
2023-02-28T10:27:15.369Z,101464.69
2023-02-28T10:29:49.092Z,101450.50
2023-02-28T10:32:32.350Z,101448.84
2023-02-28T10:35:18.281Z,101452.28
2023-02-28T10:37:51.814Z,101427.56
2023-02-28T10:40:19.236Z,101455.59
2023-02-28T10:43:04.576Z,101444.16
2023-02-28T10:45:38.214Z,101448.53
2023-02-28T10:48:33.097Z,101451.25
2023-02-28T10:51:01.513Z,101446.91
2023-02-28T10:53:44.721Z,101445.13
2023-02-28T10:56:25.427Z,101444.00
2023-02-28T10:59:03.962Z,101432.66
2023-02-28T11:01:31.823Z,101431.69
2023-02-28T11:04:00.167Z,101434.25
2023-02-28T11:06:35.819Z,101428.88
2023-02-28T11:09:45.312Z,101422.94
2023-02-28T11:12:24.667Z,101422.13
2023-02-28T11:15:00.823Z,101425.63
2023-02-28T11:17:31.852Z,101407.88
2023-02-28T11:20:19.188Z,101423.78
2023-02-28T11:22:47.387Z,101418.31
2023-02-28T11:25:26.588Z,101409.56
2023-02-28T11:27:57.429Z,101403.09
2023-02-28T11:30:29.960Z,101401.25
2023-02-28T11:32:57.490Z,101395.84
2023-02-28T11:35:41.472Z,101394.09
2023-02-28T11:38:13.921Z,101378.22
2023-02-28T11:41:09.168Z,101378.94
2023-02-28T11:43:58.278Z,101379.91
2023-02-28T11:46:39.081Z,101373.66
2023-02-28T11:49:32.401Z,101381.41
2023-02-28T11:52:09.690Z,101369.09
2023-02-28T11:55:01.480Z,101371.69
2023-02-28T11:57:59.433Z,101370.63
2023-02-28T12:00:39.492Z,101369.88
2023-02-28T12:03:29.830Z,101349.72
2023-02-28T12:06:10.269Z,101353.75
2023-02-28T12:09:15.186Z,101332.56
2023-02-28T12:12:11.609Z,101344.84
2023-02-28T12:14:51.254Z,101342.38
2023-02-28T12:17:27.862Z,101333.44
2023-02-28T12:20:14.091Z,101333.22
2023-02-28T12:22:53.667Z,101325.34
2023-02-28T12:25:49.240Z,101321.69
2023-02-28T12:28:22.967Z,101311.94
2023-02-28T12:31:02.382Z,101320.03
2023-02-28T12:33:41.691Z,101308.50
2023-02-28T12:36:13.344Z,101300.41
2023-02-28T12:38:45.066Z,101304.81
2023-02-28T12:41:35.870Z,101301.00
2023-02-28T12:44:12.685Z,101300.22
2023-02-28T12:46:44.021Z,101302.31
2023-02-28T12:49:21.420Z,101298.75
2023-02-28T12:51:51.102Z,101286.91
2023-02-28T12:54:39.140Z,101279.78
2023-02-28T12:57:17.010Z,101287.47
2023-02-28T12:59:54.787Z,101281.19
2023-02-28T13:02:31.241Z,101274.53
2023-02-28T13:05:11.143Z,101278.75
2023-02-28T13:08:25.770Z,101272.47
2023-02-28T13:10:55.662Z,101263.91
2023-02-28T13:13:26.881Z,101264.72
2023-02-28T13:16:08.157Z,101264.75
2023-02-28T13:18:44.501Z,101253.75
2023-02-28T13:21:28.216Z,101247.44
2023-02-28T13:24:02.128Z,101242.44
2023-02-28T13:26:32.230Z,101251.06
2023-02-28T13:29:05.443Z,101253.75
2023-02-28T13:31:35.180Z,101260.75
2023-02-28T13:34:13.392Z,101245.03
2023-02-28T13:36:40.985Z,101241.31
2023-02-28T13:39:37.810Z,101247.69
2023-02-28T13:42:31.302Z,101248.28
2023-02-28T13:45:04.799Z,101252.63
2023-02-28T13:47:37.793Z,101237.81
2023-02-28T13:50:26.965Z,101244.06
2023-02-28T13:53:12.348Z,101239.44
2023-02-28T13:56:09.469Z,101228.88
2023-02-28T13:58:54.030Z,101234.31
2023-02-28T14:01:44.377Z,101224.69
2023-02-28T14:04:45.748Z,101233.41
2023-02-28T14:07:26.523Z,101223.63
2023-02-28T14:10:00.739Z,101221.66
2023-02-28T14:12:58.987Z,101220.50
2023-02-28T14:15:35.320Z,101217.81
2023-02-28T14:18:06.678Z,101211.78
2023-02-28T14:20:35.232Z,101218.06
2023-02-28T14:23:11.743Z,101209.97
2023-02-28T14:25:55.391Z,101211.66
2023-02-28T14:28:33.830Z,101202.97
2023-02-28T14:31:15.660Z,101202.16
2023-02-28T14:34:01.364Z,101199.75
2023-02-28T14:36:34.307Z,101198.81
2023-02-28T14:39:06.998Z,101195.69
2023-02-28T14:41:38.395Z,101193.69
2023-02-28T14:44:19.375Z,101185.00
2023-02-28T14:46:50.958Z,101195.81
2023-02-28T14:49:18.305Z,101185.16
2023-02-28T14:51:46.183Z,101191.28
2023-02-28T14:54:17.036Z,101184.13
2023-02-28T14:56:44.571Z,101181.38
2023-02-28T14:59:27.392Z,101173.31
2023-02-28T15:02:15.971Z,101181.47
2023-02-28T15:04:43.534Z,101191.31
2023-02-28T15:07:16.071Z,101188.75
2023-02-28T15:09:43.767Z,101176.44
2023-02-28T15:12:16.238Z,101180.88
2023-02-28T15:14:45.352Z,101175.63
2023-02-28T15:17:22.295Z,101185.31
2023-02-28T15:19:53.189Z,101169.53
2023-02-28T15:22:30.342Z,101172.16
2023-02-28T15:24:58.311Z,101185.16
2023-02-28T15:27:33.169Z,101184.84
2023-02-28T15:30:08.686Z,101169.84
2023-02-28T15:32:39.826Z,101182.34
2023-02-28T15:35:29.762Z,101173.69
2023-02-28T15:38:15.673Z,101164.91
2023-02-28T15:40:46.282Z,101172.91
2023-02-28T15:43:17.748Z,101180.78
2023-02-28T15:45:51.211Z,101172.16
2023-02-28T15:48:20.985Z,101184.63
2023-02-28T15:50:52.564Z,101183.69
2023-02-28T15:53:24.668Z,101192.41
2023-02-28T15:56:08.796Z,101182.69
2023-02-28T15:58:37.996Z,101172.19
2023-02-28T16:01:09.571Z,101188.38
2023-02-28T16:03:41.893Z,101186.50
2023-02-28T16:06:30.442Z,101182.19
2023-02-28T16:08:57.802Z,101167.25
2023-02-28T16:11:25.378Z,101186.03
2023-02-28T16:13:54.086Z,101174.53
2023-02-28T16:16:25.338Z,101182.44
2023-02-28T16:18:53.556Z,101174.63
2023-02-28T16:21:21.010Z,101178.19
2023-02-28T16:23:48.466Z,101172.84
2023-02-28T16:26:24.350Z,101179.94
2023-02-28T16:28:52.872Z,101184.31
2023-02-28T16:31:20.814Z,101166.78
2023-02-28T16:33:48.214Z,101180.09
2023-02-28T16:36:21.976Z,101172.91
2023-02-28T16:38:49.447Z,101181.94
2023-02-28T16:41:21.713Z,101183.69
2023-02-28T16:43:52.387Z,101183.78
2023-02-28T16:46:20.867Z,101173.16
2023-02-28T16:48:52.541Z,101182.06
2023-02-28T16:51:20.099Z,101185.63
2023-02-28T16:53:48.291Z,101179.50
2023-02-28T16:56:21.196Z,101192.81
2023-02-28T16:58:50.296Z,101186.69
2023-02-28T17:01:22.876Z,101179.63
2023-02-28T17:03:50.553Z,101181.41
2023-02-28T17:06:24.187Z,101191.31
2023-02-28T17:08:52.487Z,101183.34
2023-02-28T17:11:20.526Z,101192.19
2023-02-28T17:13:48.668Z,101192.19
2023-02-28T17:16:33.647Z,101194.84
2023-02-28T17:19:04.120Z,101189.59
2023-02-28T17:21:32.674Z,101197.53
2023-02-28T17:24:01.200Z,101209.94
2023-02-28T17:26:29.284Z,101201.19
2023-02-28T17:28:58.357Z,101203.88
2023-02-28T17:31:26.719Z,101209.31
2023-02-28T17:33:55.624Z,101215.50
2023-02-28T17:36:26.880Z,101219.19
2023-02-28T17:38:56.297Z,101227.09
2023-02-28T17:41:23.812Z,101216.66
2023-02-28T17:43:51.928Z,101212.28
2023-02-28T17:46:24.193Z,101225.59
2023-02-28T17:48:53.451Z,101225.66
2023-02-28T17:51:22.670Z,101234.63
2023-02-28T17:53:50.182Z,101229.25
2023-02-28T17:56:21.036Z,101229.38
2023-02-28T17:58:48.652Z,101237.38
2023-02-28T18:01:16.375Z,101232.06
2023-02-28T18:03:43.935Z,101236.50
2023-02-28T18:06:20.667Z,101240.88
2023-02-28T18:08:52.412Z,101237.44
2023-02-28T18:11:21.517Z,101234.84
2023-02-28T18:13:53.440Z,101243.69
2023-02-28T18:16:25.395Z,101248.16
2023-02-28T18:18:53.325Z,101245.56
2023-02-28T18:21:20.750Z,101246.53
2023-02-28T18:23:48.619Z,101251.78
2023-02-28T18:26:17.566Z,101251.88
2023-02-28T18:28:46.076Z,101242.09
2023-02-28T18:31:16.320Z,101243.09
2023-02-28T18:33:44.809Z,101251.00
2023-02-28T18:36:12.176Z,101254.63
2023-02-28T18:38:40.268Z,101259.91
2023-02-28T18:41:08.397Z,101253.75
2023-02-28T18:43:40.738Z,101251.91
2023-02-28T18:46:10.685Z,101246.56
2023-02-28T18:48:38.647Z,101266.94
2023-02-28T18:51:11.265Z,101259.88
2023-02-28T18:53:40.562Z,101282.88
2023-02-28T18:56:10.654Z,101279.38
2023-02-28T18:58:38.025Z,101274.97
2023-02-28T19:01:15.496Z,101277.69
2023-02-28T19:03:43.355Z,101282.19
2023-02-28T19:06:11.598Z,101285.72
2023-02-28T19:08:39.256Z,101276.84
2023-02-28T19:11:16.001Z,101283.06
2023-02-28T19:13:43.937Z,101286.66
2023-02-28T19:16:12.903Z,101277.03
2023-02-28T19:18:41.026Z,101277.81
2023-02-28T19:21:10.571Z,101276.81
2023-02-28T19:23:39.379Z,101282.16
2023-02-28T19:26:08.922Z,101279.56
2023-02-28T19:28:36.538Z,101287.53
2023-02-28T19:31:04.509Z,101270.75
2023-02-28T19:33:32.348Z,101290.16
2023-02-28T19:36:01.352Z,101276.03
2023-02-28T19:38:28.800Z,101280.44
2023-02-28T19:41:05.745Z,101286.59
2023-02-28T19:43:33.504Z,101298.13
2023-02-28T19:46:01.392Z,101289.31
2023-02-28T19:48:29.341Z,101276.09
2023-02-28T19:51:02.104Z,101285.84
2023-02-28T19:53:31.060Z,101289.34
2023-02-28T19:56:00.462Z,101289.34
2023-02-28T19:58:28.253Z,101277.88
2023-02-28T20:00:56.052Z,101278.81
2023-02-28T20:03:25.232Z,101272.72
2023-02-28T20:06:05.202Z,101271.00
2023-02-28T20:08:32.878Z,101275.34
2023-02-28T20:11:12.448Z,101280.56
2023-02-28T20:13:39.941Z,101286.78
2023-02-28T20:16:10.824Z,101283.31
2023-02-28T20:18:39.911Z,101278.03
2023-02-28T20:21:12.233Z,101263.06
2023-02-28T20:23:41.246Z,101262.16
2023-02-28T20:26:10.055Z,101260.47
2023-02-28T20:28:38.486Z,101261.41
2023-02-28T20:31:14.002Z,101264.00
2023-02-28T20:33:44.393Z,101261.34
2023-02-28T20:36:13.567Z,101266.63
2023-02-28T20:38:41.701Z,101256.06
2023-02-28T20:41:09.478Z,101262.22
2023-02-28T20:43:37.500Z,101266.69
2023-02-28T20:46:05.194Z,101260.50
2023-02-28T20:48:35.911Z,101251.69
2023-02-28T20:51:07.300Z,101267.56
2023-02-28T20:53:36.418Z,101257.00
2023-02-28T20:56:05.938Z,101263.16
2023-02-28T20:58:36.560Z,101258.75
2023-02-28T21:01:27.386Z,101272.00
2023-02-28T21:03:56.352Z,101264.94
2023-02-28T21:06:26.560Z,101270.25
2023-02-28T21:08:54.752Z,101272.88
2023-02-28T21:11:32.137Z,101284.38
2023-02-28T21:14:01.725Z,101265.81
2023-02-28T21:16:29.912Z,101260.53
2023-02-28T21:19:04.052Z,101257.03
2023-02-28T21:21:44.000Z,101267.59
2023-02-28T21:24:12.778Z,101266.72
2023-02-28T21:26:41.355Z,101287.00
2023-02-28T21:29:10.915Z,101272.03
2023-02-28T21:31:38.441Z,101261.41
2023-02-28T21:34:08.097Z,101266.69
2023-02-28T21:36:41.454Z,101259.66
2023-02-28T21:39:25.732Z,101272.00
2023-02-28T21:41:53.844Z,101269.34
2023-02-28T21:44:22.845Z,101270.22
2023-02-28T21:46:56.896Z,101273.75
2023-02-28T21:49:24.396Z,101267.56
2023-02-28T21:51:51.821Z,101267.59
2023-02-28T21:54:19.284Z,101273.75
2023-02-28T21:56:46.677Z,101270.22
2023-02-28T21:59:14.017Z,101276.41
2023-02-28T22:01:46.310Z,101270.22
2023-02-28T22:04:22.471Z,101272.88
2023-02-28T22:06:57.240Z,101279.03
2023-02-28T22:09:25.852Z,101278.13
2023-02-28T22:11:53.307Z,101271.97
2023-02-28T22:14:21.038Z,101262.25
2023-02-28T22:16:52.610Z,101268.47
2023-02-28T22:19:21.683Z,101264.97
2023-02-28T22:21:50.372Z,101260.53
2023-02-28T22:24:20.624Z,101264.09
2023-02-28T22:26:49.482Z,101283.50
2023-02-28T22:29:16.971Z,101279.97
2023-02-28T22:31:44.387Z,101277.34
2023-02-28T22:34:12.656Z,101256.16
2023-02-28T22:36:42.293Z,101248.25
2023-02-28T22:39:10.687Z,101256.13
2023-02-28T22:41:39.086Z,101259.69
2023-02-28T22:44:07.359Z,101264.09
2023-02-28T22:46:35.627Z,101266.72
2023-02-28T22:49:04.745Z,101273.78
2023-02-28T22:51:32.164Z,101269.38
2023-02-28T22:53:59.720Z,101264.97
2023-02-28T22:56:29.474Z,101272.88
2023-02-28T22:58:59.559Z,101264.97
2023-02-28T23:01:29.620Z,101275.53
2023-02-28T23:03:57.769Z,101272.03
2023-02-28T23:06:33.510Z,101256.16
2023-02-28T23:09:05.423Z,101259.66
2023-02-28T23:11:37.945Z,101255.25
2023-02-28T23:14:05.692Z,101242.03
2023-02-28T23:16:37.896Z,101247.34
2023-02-28T23:19:08.477Z,101245.56
2023-02-28T23:21:36.706Z,101247.38
2023-02-28T23:24:05.602Z,101249.09
2023-02-28T23:26:33.280Z,101251.72
2023-02-28T23:29:01.225Z,101247.28
2023-02-28T23:31:28.668Z,101242.00
2023-02-28T23:33:56.938Z,101249.06
2023-02-28T23:36:24.523Z,101249.03
2023-02-28T23:38:53.067Z,101244.63
2023-02-28T23:41:22.169Z,101250.78
2023-02-28T23:43:51.188Z,101241.13
2023-02-28T23:46:20.871Z,101244.66
2023-02-28T23:48:48.461Z,101228.78
2023-02-28T23:51:19.736Z,101226.16
2023-02-28T23:53:50.332Z,101235.88
2023-02-28T23:56:22.000Z,101238.50
2023-02-28T23:58:50.363Z,101230.56
